Time;durP1;ratioP1;P1;durP2;ratioP2;P2;SDS_P1;SDS_P2;PMS_P1;PMS_P2;Temp;Humidity;BMP_temperature;BMP_pressure;BME280_temperature;BME280_humidity;BME280_pressure;Samples;Min_cycle;Max_cycle;Signal;HPM_P1;HPM_P2
2021/08/24 00:01:24;;;;;;;9.18;6.53;;;14.30;99.90;;;;;;4954218;28;20488;-60
2021/08/24 00:03:53;;;;;;;12.00;7.78;;;14.20;99.90;;;;;;4961320;28;20063;-59
2021/08/24 00:06:21;;;;;;;10.93;6.95;;;14.20;99.90;;;;;;4962953;28;20069;-59
2021/08/24 00:08:50;;;;;;;10.55;6.80;;;14.20;99.90;;;;;;4956321;28;20050;-59
2021/08/24 00:11:16;;;;;;;9.48;7.35;;;14.20;99.90;;;;;;4956946;28;20134;-60
2021/08/24 00:13:50;;;;;;;10.80;7.15;;;14.20;99.90;;;;;;4964855;28;20050;-60
2021/08/24 00:16:20;;;;;;;9.35;6.43;;;14.10;99.90;;;;;;4961434;28;20057;-60
2021/08/24 00:18:50;;;;;;;11.50;6.63;;;14.20;99.90;;;;;;4963510;28;20799;-60
2021/08/24 00:21:19;;;;;;;13.48;7.70;;;14.20;99.90;;;;;;4959178;28;20156;-60
2021/08/24 00:23:45;;;;;;;9.77;7.10;;;14.10;99.90;;;;;;4957782;28;20055;-60
2021/08/24 00:26:17;;;;;;;12.05;6.82;;;14.10;99.90;;;;;;4964254;28;20502;-59
2021/08/24 00:28:44;;;;;;;11.55;6.95;;;14.10;99.90;;;;;;4960726;28;20057;-59
2021/08/24 00:31:10;;;;;;;9.00;7.28;;;14.10;99.90;;;;;;4963498;28;20567;-59
2021/08/24 00:33:36;;;;;;;12.48;6.82;;;14.10;99.90;;;;;;4942847;28;20055;-60
2021/08/24 00:36:05;;;;;;;10.98;6.75;;;14.10;99.90;;;;;;4964118;28;20051;-59
2021/08/24 00:38:34;;;;;;;10.73;7.20;;;14.00;99.90;;;;;;4940924;28;20081;-60
2021/08/24 00:41:03;;;;;;;12.43;6.45;;;14.00;99.90;;;;;;4957389;28;20125;-60
2021/08/24 00:43:31;;;;;;;9.65;6.72;;;14.00;99.90;;;;;;4945237;28;20078;-60
2021/08/24 00:46:18;;;;;;;9.10;6.85;;;14.00;99.90;;;;;;4952717;28;20051;-60
2021/08/24 00:48:46;;;;;;;9.75;6.68;;;14.00;99.90;;;;;;4961515;28;20054;-60
2021/08/24 00:51:21;;;;;;;8.77;6.20;;;13.90;99.90;;;;;;4954693;28;20043;-60
2021/08/24 00:53:49;;;;;;;9.80;6.40;;;13.90;99.90;;;;;;4956309;28;20062;-59
2021/08/24 00:56:15;;;;;;;9.63;6.20;;;13.80;99.90;;;;;;4956236;28;20054;-60
2021/08/24 00:58:42;;;;;;;8.90;6.70;;;13.90;99.90;;;;;;4962965;28;20483;-61
2021/08/24 01:01:10;;;;;;;9.50;6.80;;;13.90;99.90;;;;;;4960753;28;20101;-60
2021/08/24 01:03:42;;;;;;;8.23;6.45;;;13.90;99.90;;;;;;4957576;28;20055;-60
2021/08/24 01:06:33;;;;;;;10.20;5.97;;;13.80;99.90;;;;;;4954633;28;20098;-60
2021/08/24 01:09:25;;;;;;;9.55;6.43;;;13.80;99.90;;;;;;4945528;28;20070;-60
2021/08/24 01:11:52;;;;;;;7.72;6.28;;;13.80;99.90;;;;;;4949058;28;20054;-59
2021/08/24 01:14:43;;;;;;;11.30;6.47;;;13.80;99.90;;;;;;4963956;28;20060;-60
2021/08/24 01:17:17;;;;;;;13.20;7.32;;;13.80;99.90;;;;;;4961309;28;20054;-60
2021/08/24 01:19:55;;;;;;;11.70;6.93;;;13.70;99.90;;;;;;4957419;28;20527;-60
2021/08/24 01:22:50;;;;;;;12.13;7.13;;;13.70;99.90;;;;;;4955967;28;20047;-60
2021/08/24 01:25:36;;;;;;;11.48;7.57;;;13.70;99.90;;;;;;4959714;28;20110;-60
2021/08/24 01:28:23;;;;;;;13.77;6.72;;;13.70;99.90;;;;;;4954978;28;20056;-60
2021/08/24 01:31:13;;;;;;;12.25;7.00;;;13.70;99.90;;;;;;4961111;28;20162;-60
2021/08/24 01:34:09;;;;;;;10.80;7.38;;;13.70;99.90;;;;;;4958301;28;20074;-60
2021/08/24 01:37:06;;;;;;;11.93;7.25;;;13.70;99.90;;;;;;4964837;28;20503;-60
2021/08/24 01:39:46;;;;;;;11.48;7.47;;;13.70;99.90;;;;;;4958036;28;20055;-61
2021/08/24 01:42:21;;;;;;;10.70;7.40;;;13.70;99.90;;;;;;4962439;28;20055;-60
2021/08/24 01:44:58;;;;;;;11.88;7.55;;;13.70;99.90;;;;;;4958624;28;20054;-59
2021/08/24 01:47:24;;;;;;;13.75;7.97;;;13.70;99.90;;;;;;4942435;28;20058;-59
2021/08/24 01:50:05;;;;;;;11.13;6.95;;;13.70;99.90;;;;;;4956180;28;20051;-60
2021/08/24 01:52:42;;;;;;;12.35;8.05;;;13.70;99.90;;;;;;4957216;28;20558;-60
2021/08/24 01:55:23;;;;;;;10.15;8.05;;;13.70;99.90;;;;;;4962424;28;20055;-60
2021/08/24 01:58:13;;;;;;;14.10;8.20;;;13.70;99.90;;;;;;4952483;28;20102;-60
2021/08/24 02:00:48;;;;;;;11.65;8.95;;;13.70;99.90;;;;;;4961103;28;20048;-60
2021/08/24 02:03:32;;;;;;;16.30;8.80;;;13.70;99.90;;;;;;4953019;28;20114;-60
2021/08/24 02:06:15;;;;;;;11.48;8.05;;;13.70;99.90;;;;;;4964988;28;20059;-60
2021/08/24 02:08:54;;;;;;;15.23;9.55;;;13.70;99.90;;;;;;4961523;28;20058;-60
2021/08/24 02:11:27;;;;;;;15.82;8.52;;;13.70;99.90;;;;;;4957878;28;20578;-59
2021/08/24 02:13:54;;;;;;;12.20;8.95;;;13.70;99.90;;;;;;4957010;28;20062;-59
2021/08/24 02:16:27;;;;;;;15.13;9.00;;;13.70;99.90;;;;;;4957251;28;20061;-59
2021/08/24 02:19:08;;;;;;;14.07;9.27;;;13.70;99.90;;;;;;4961336;28;20141;-60
2021/08/24 02:21:47;;;;;;;14.32;8.73;;;13.70;99.90;;;;;;4960221;28;20579;-60
2021/08/24 02:24:22;;;;;;;14.85;9.52;;;13.70;99.90;;;;;;4932510;29;20138;-61
2021/08/24 02:26:50;;;;;;;15.95;9.90;;;13.70;99.90;;;;;;4958974;28;20499;-61
2021/08/24 02:29:17;;;;;;;11.43;9.40;;;13.70;99.90;;;;;;4969572;28;20050;-59
2021/08/24 02:32:00;;;;;;;10.38;9.27;;;13.70;99.90;;;;;;4962203;28;20054;-59
2021/08/24 02:34:58;;;;;;;15.18;10.15;;;13.60;99.90;;;;;;4957411;28;20058;-60
2021/08/24 02:37:37;;;;;;;15.70;9.40;;;13.70;99.90;;;;;;4963580;28;20058;-60
2021/08/24 02:40:32;;;;;;;11.55;9.25;;;13.60;99.90;;;;;;4957956;28;20097;-60
2021/08/24 02:43:09;;;;;;;14.93;10.02;;;13.60;99.90;;;;;;4968592;28;20138;-60
2021/08/24 02:45:41;;;;;;;14.73;9.60;;;13.60;99.90;;;;;;4946945;28;20058;-60
2021/08/24 02:48:11;;;;;;;11.50;9.93;;;13.60;99.90;;;;;;4965826;28;20057;-61
2021/08/24 02:50:40;;;;;;;15.03;10.23;;;13.60;99.90;;;;;;4946085;28;20065;-60
2021/08/24 02:53:09;;;;;;;19.60;10.07;;;13.60;99.90;;;;;;4957505;28;20046;-60
2021/08/24 02:55:41;;;;;;;16.48;10.15;;;13.60;99.90;;;;;;4955488;28;20472;-60
2021/08/24 02:58:08;;;;;;;14.35;10.25;;;13.50;99.90;;;;;;4960942;28;20535;-60
2021/08/24 03:00:37;;;;;;;16.48;10.57;;;13.50;99.90;;;;;;4959728;28;20046;-60
2021/08/24 03:03:06;;;;;;;15.77;10.38;;;13.50;99.90;;;;;;4943977;28;20061;-60
2021/08/24 03:05:35;;;;;;;13.20;10.52;;;13.60;99.90;;;;;;4944775;28;20444;-61
2021/08/24 03:08:04;;;;;;;14.82;10.80;;;13.50;99.90;;;;;;4953679;28;20427;-60
2021/08/24 03:10:39;;;;;;;12.38;10.20;;;13.50;99.90;;;;;;4962332;28;20101;-61
2021/08/24 03:13:34;;;;;;;16.15;10.95;;;13.50;99.90;;;;;;4960672;28;20055;-60
2021/08/24 03:16:10;;;;;;;14.40;10.88;;;13.50;99.90;;;;;;4946719;28;20058;-60
2021/08/24 03:18:43;;;;;;;17.77;11.90;;;13.50;99.90;;;;;;4958599;28;20051;-60
2021/08/24 03:21:20;;;;;;;14.52;11.48;;;13.50;99.90;;;;;;4961042;28;20062;-60
2021/08/24 03:23:54;;;;;;;16.90;12.18;;;13.50;99.90;;;;;;4963333;28;20097;-59
2021/08/24 03:26:27;;;;;;;16.70;12.50;;;13.40;99.90;;;;;;4948335;28;20408;-60
2021/08/24 03:28:56;;;;;;;16.00;10.60;;;13.40;99.90;;;;;;4958628;28;20548;-60
2021/08/24 03:31:23;;;;;;;17.27;12.88;;;13.40;99.90;;;;;;4960328;28;20050;-60
2021/08/24 03:33:49;;;;;;;19.00;12.30;;;13.40;99.90;;;;;;4948774;28;20070;-60
2021/08/24 03:36:15;;;;;;;17.05;11.88;;;13.40;99.90;;;;;;4946668;28;20062;-60
2021/08/24 03:38:45;;;;;;;16.23;12.77;;;13.40;99.90;;;;;;4964064;28;20062;-60
2021/08/24 03:41:12;;;;;;;16.58;11.68;;;13.40;99.90;;;;;;4956963;28;20070;-60
2021/08/24 03:43:39;;;;;;;17.50;11.68;;;13.40;99.90;;;;;;4958158;28;20082;-60
2021/08/24 03:46:10;;;;;;;18.30;12.35;;;13.30;99.90;;;;;;4958488;28;20764;-59
2021/08/24 03:48:40;;;;;;;24.55;12.82;;;13.30;99.90;;;;;;4961368;28;20059;-60
2021/08/24 03:51:06;;;;;;;15.15;12.05;;;13.30;99.90;;;;;;4961467;28;20060;-59
2021/08/24 03:53:37;;;;;;;17.55;12.82;;;13.30;99.90;;;;;;4964447;28;20051;-60
2021/08/24 03:56:08;;;;;;;19.10;12.73;;;13.30;99.90;;;;;;4961354;28;20070;-61
2021/08/24 03:58:37;;;;;;;16.45;12.60;;;13.30;99.90;;;;;;4962142;28;20107;-60
2021/08/24 04:01:09;;;;;;;14.85;11.65;;;13.20;99.90;;;;;;4968038;28;20058;-60
2021/08/24 04:03:38;;;;;;;;;;;13.30;99.90;;;;;;4959822;28;20055;-62
2021/08/24 04:06:04;;;;;;;16.20;11.75;;;13.30;99.90;;;;;;4950223;28;19932;-63
2021/08/24 04:08:30;;;;;;;17.05;12.90;;;13.30;99.90;;;;;;4957509;28;20404;-63
2021/08/24 04:10:57;;;;;;;14.98;11.07;;;13.20;99.90;;;;;;4959500;28;20058;-62
2021/08/24 04:13:24;;;;;;;14.60;12.30;;;13.20;99.90;;;;;;4961510;28;20055;-63
2021/08/24 04:15:50;;;;;;;18.52;12.82;;;13.20;99.90;;;;;;4964612;28;20054;-62
2021/08/24 04:18:21;;;;;;;16.83;11.88;;;13.20;99.90;;;;;;4964668;28;20054;-64
2021/08/24 04:20:50;;;;;;;17.90;12.32;;;13.20;99.90;;;;;;4961867;28;20077;-63
2021/08/24 04:23:21;;;;;;;15.60;12.32;;;13.20;99.90;;;;;;4956463;28;20059;-64
2021/08/24 04:25:50;;;;;;;19.45;13.50;;;13.20;99.90;;;;;;4960198;28;20059;-65
2021/08/24 04:28:22;;;;;;;26.38;13.13;;;13.20;99.90;;;;;;4961556;28;20055;-63
2021/08/24 04:30:53;;;;;;;18.55;12.85;;;13.20;99.90;;;;;;4961087;28;20054;-62
2021/08/24 04:33:22;;;;;;;17.00;11.68;;;13.20;99.90;;;;;;4963476;28;20055;-64
2021/08/24 04:35:54;;;;;;;;;;;13.20;99.90;;;;;;4965149;28;20058;-62
2021/08/24 04:38:21;;;;;;;18.30;13.52;;;13.20;99.90;;;;;;4966686;28;19972;-61
2021/08/24 04:40:51;;;;;;;17.60;12.70;;;13.20;99.90;;;;;;4963254;28;20066;-63
2021/08/24 04:43:18;;;;;;;20.65;13.82;;;13.20;99.90;;;;;;4962907;28;20050;-60
2021/08/24 04:45:44;;;;;;;17.42;12.93;;;13.20;99.90;;;;;;4957671;28;20051;-62
2021/08/24 04:48:13;;;;;;;18.67;12.27;;;13.30;99.90;;;;;;4958937;28;20047;-62
2021/08/24 04:50:47;;;;;;;18.30;12.48;;;13.20;99.90;;;;;;4963103;28;20059;-61
2021/08/24 04:53:13;;;;;;;19.08;14.23;;;13.30;99.90;;;;;;4957499;28;20069;-62
2021/08/24 04:55:43;;;;;;;15.85;12.88;;;13.30;99.90;;;;;;4955044;28;20065;-61
2021/08/24 04:58:09;;;;;;;20.52;14.60;;;13.30;99.90;;;;;;4955126;28;20066;-63
2021/08/24 05:00:40;;;;;;;17.27;12.75;;;13.30;99.90;;;;;;4956236;28;20055;-61
2021/08/24 05:03:10;;;;;;;20.80;13.85;;;13.30;99.90;;;;;;4958755;28;20055;-61
2021/08/24 05:05:39;;;;;;;18.90;13.25;;;13.30;99.90;;;;;;4958590;28;20131;-61
2021/08/24 05:08:08;;;;;;;18.40;13.93;;;13.40;99.90;;;;;;4961936;28;20126;-61
2021/08/24 05:10:39;;;;;;;15.50;11.43;;;13.40;99.90;;;;;;4959402;28;20550;-62
2021/08/24 05:13:08;;;;;;;19.27;12.90;;;13.50;99.90;;;;;;4960434;28;20061;-61
2021/08/24 05:15:39;;;;;;;15.25;12.80;;;13.60;99.90;;;;;;4958758;28;20050;-62
2021/08/24 05:18:10;;;;;;;15.18;11.30;;;13.70;99.90;;;;;;4961136;28;20504;-60
2021/08/24 05:20:37;;;;;;;16.27;11.88;;;13.80;99.90;;;;;;4963706;28;20129;-62
2021/08/24 05:23:06;;;;;;;13.90;10.77;;;13.90;99.90;;;;;;4960215;28;20093;-63
2021/08/24 05:25:35;;;;;;;12.38;10.07;;;14.00;99.90;;;;;;4963655;28;20111;-61
2021/08/24 05:28:05;;;;;;;13.05;10.23;;;14.00;99.90;;;;;;4950603;28;21114;-65
2021/08/24 05:30:33;;;;;;;92.60;82.68;;;14.20;99.90;;;;;;4962532;28;20108;-62
2021/08/24 05:33:00;;;;;;;46.90;39.45;;;14.20;99.90;;;;;;4959236;28;20138;-65
2021/08/24 05:35:27;;;;;;;38.90;34.67;;;14.30;99.90;;;;;;4964731;28;20054;-63
2021/08/24 05:37:57;;;;;;;17.02;11.20;;;14.40;99.90;;;;;;4960384;28;20085;-63
2021/08/24 05:40:23;;;;;;;30.90;26.00;;;14.40;99.90;;;;;;4968654;28;20055;-66
2021/08/24 05:42:51;;;;;;;16.38;12.05;;;14.40;99.90;;;;;;4958594;28;20082;-64
2021/08/24 05:45:18;;;;;;;17.63;13.52;;;14.60;99.90;;;;;;4963213;28;20047;-65
2021/08/24 05:47:44;;;;;;;13.07;9.60;;;14.70;99.90;;;;;;4960606;28;20126;-67
2021/08/24 05:50:13;;;;;;;13.15;9.50;;;14.90;99.90;;;;;;4963089;28;20059;-67
2021/08/24 05:52:40;;;;;;;15.85;10.82;;;15.00;99.90;;;;;;4964532;28;20207;-67
2021/08/24 05:55:07;;;;;;;14.52;8.27;;;15.10;99.90;;;;;;4958083;28;20094;-70
2021/08/24 05:57:34;;;;;;;11.48;7.60;;;15.30;99.90;;;;;;4969802;28;20125;-66
2021/08/24 06:00:00;;;;;;;10.57;7.65;;;15.40;99.90;;;;;;4956867;28;20061;-69
2021/08/24 06:02:29;;;;;;;8.38;6.57;;;15.60;99.90;;;;;;4968854;28;20054;-67
2021/08/24 06:04:58;;;;;;;14.30;9.52;;;15.70;99.90;;;;;;4951139;28;20501;-63
2021/08/24 06:07:24;;;;;;;42.63;37.53;;;15.80;99.90;;;;;;4960651;28;20051;-69
2021/08/24 06:09:50;;;;;;;17.42;12.35;;;16.00;99.90;;;;;;4962379;28;20058;-67
2021/08/24 06:12:19;;;;;;;10.70;7.97;;;16.10;99.90;;;;;;4963995;28;20141;-64
2021/08/24 06:14:45;;;;;;;12.00;5.97;;;16.20;99.90;;;;;;4969351;28;20056;-63
2021/08/24 06:17:14;;;;;;;12.25;6.53;;;16.40;99.90;;;;;;4959663;28;20121;-65
2021/08/24 06:19:43;;;;;;;12.80;6.03;;;16.60;99.90;;;;;;4965775;28;20086;-64
2021/08/24 06:22:12;;;;;;;10.60;8.93;;;16.70;99.90;;;;;;4959788;28;20394;-64
2021/08/24 06:24:38;;;;;;;14.07;11.05;;;16.80;99.90;;;;;;4947287;28;20061;-64
2021/08/24 06:27:07;;;;;;;35.42;31.60;;;16.90;99.90;;;;;;4963393;28;20051;-62
2021/08/24 06:29:33;;;;;;;9.82;6.05;;;17.00;99.90;;;;;;4967479;28;20061;-63
2021/08/24 06:32:04;;;;;;;46.35;41.60;;;17.30;99.90;;;;;;4959891;28;20113;-61
2021/08/24 06:34:39;;;;;;;9.93;7.45;;;17.40;99.90;;;;;;4965227;28;20499;-63
2021/08/24 06:37:05;;;;;;;19.40;16.10;;;17.60;99.90;;;;;;4970650;28;20046;-65
2021/08/24 06:39:32;;;;;;;15.80;11.23;;;17.70;99.90;;;;;;4962310;28;20112;-65
2021/08/24 06:41:59;;;;;;;10.57;4.25;;;17.90;99.90;;;;;;4960456;28;20047;-63
2021/08/24 06:44:25;;;;;;;18.30;14.40;;;18.00;99.90;;;;;;4959237;28;20051;-64
2021/08/24 06:46:54;;;;;;;7.80;5.13;;;18.30;99.90;;;;;;4964527;28;20408;-65
2021/08/24 06:49:20;;;;;;;9.52;6.05;;;18.40;99.90;;;;;;4961937;28;20412;-61
2021/08/24 06:51:46;;;;;;;7.13;4.45;;;18.70;99.90;;;;;;4962357;28;20051;-61
2021/08/24 06:54:26;;;;;;;10.10;4.68;;;18.80;99.90;;;;;;4950336;28;20138;-62
2021/08/24 06:56:52;;;;;;;8.73;4.30;;;19.10;99.90;;;;;;4954782;28;20432;-60
2021/08/24 06:59:18;;;;;;;18.73;16.08;;;19.30;99.90;;;;;;4960269;28;20129;-62
2021/08/24 07:01:45;;;;;;;18.27;14.35;;;19.40;99.90;;;;;;4966235;28;20525;-61
2021/08/24 07:04:17;;;;;;;8.20;3.97;;;19.70;99.90;;;;;;4969605;28;20105;-62
2021/08/24 07:06:47;;;;;;;23.13;20.70;;;20.00;99.90;;;;;;4960596;28;20591;-61
2021/08/24 07:09:14;;;;;;;22.27;17.77;;;20.20;99.90;;;;;;4962705;28;20086;-63
2021/08/24 07:11:40;;;;;;;14.80;12.10;;;20.40;99.90;;;;;;4976885;28;20082;-62
2021/08/24 07:14:07;;;;;;;15.25;11.07;;;20.40;99.90;;;;;;4963882;28;20778;-62
2021/08/24 07:16:33;;;;;;;39.00;35.17;;;20.60;99.90;;;;;;4970004;28;20077;-62
2021/08/24 07:19:02;;;;;;;9.48;5.40;;;20.50;99.90;;;;;;4969460;28;20061;-64
2021/08/24 07:21:29;;;;;;;18.75;15.77;;;20.60;99.90;;;;;;4968145;28;20447;-62
2021/08/24 07:24:01;;;;;;;8.88;5.13;;;20.60;99.90;;;;;;4952805;28;20066;-62
2021/08/24 07:26:29;;;;;;;16.80;14.05;;;20.70;99.90;;;;;;4969601;28;20554;-61
2021/08/24 07:28:55;;;;;;;13.70;9.57;;;20.70;99.90;;;;;;4957310;28;20051;-62
2021/08/24 07:31:22;;;;;;;16.90;15.10;;;20.70;99.90;;;;;;4962672;28;20448;-60
2021/08/24 07:33:48;;;;;;;10.38;6.53;;;20.50;99.90;;;;;;4952120;28;20054;-58
2021/08/24 07:36:14;;;;;;;17.50;14.02;;;20.90;99.90;;;;;;4945646;28;20065;-58
2021/08/24 07:38:40;;;;;;;15.27;12.02;;;20.90;99.90;;;;;;4952355;28;20058;-58
2021/08/24 07:41:09;;;;;;;11.32;4.68;;;21.00;99.90;;;;;;4939783;28;20047;-58
2021/08/24 07:43:37;;;;;;;8.00;3.38;;;21.30;99.90;;;;;;4954918;28;20129;-57
2021/08/24 07:46:05;;;;;;;13.43;10.18;;;21.80;99.90;;;;;;4956201;28;20091;-58
2021/08/24 07:48:33;;;;;;;13.50;9.25;;;21.90;99.90;;;;;;4954530;28;20208;-61
2021/08/24 07:51:00;;;;;;;12.95;9.60;;;22.30;99.90;;;;;;4963485;28;20059;-57
2021/08/24 07:53:26;;;;;;;9.43;4.95;;;22.60;99.90;;;;;;4947782;28;20784;-57
2021/08/24 07:55:55;;;;;;;7.80;3.08;;;22.60;99.90;;;;;;4949972;28;20063;-57
2021/08/24 07:58:22;;;;;;;11.57;6.68;;;22.70;99.90;;;;;;4917570;29;20058;-59
2021/08/24 08:00:48;;;;;;;11.05;5.35;;;22.80;99.90;;;;;;4936160;28;20458;-57
2021/08/24 08:03:15;;;;;;;12.38;9.77;;;22.70;99.90;;;;;;4962411;28;20059;-57
2021/08/24 08:05:41;;;;;;;8.45;4.95;;;22.90;99.90;;;;;;4953070;28;20086;-57
2021/08/24 08:08:07;;;;;;;8.35;4.88;;;23.20;99.90;;;;;;4953644;28;20453;-57
2021/08/24 08:10:36;;;;;;;7.72;3.30;;;23.00;99.90;;;;;;4962158;28;20050;-56
2021/08/24 08:13:02;;;;;;;9.82;7.70;;;23.20;99.90;;;;;;4933394;28;20063;-57
2021/08/24 08:15:32;;;;;;;33.13;29.73;;;23.40;99.90;;;;;;4958726;28;20061;-57
2021/08/24 08:18:00;;;;;;;20.10;16.60;;;23.70;99.90;;;;;;4957019;28;20790;-58
2021/08/24 08:20:30;;;;;;;22.58;18.30;;;24.20;99.90;;;;;;4944806;28;20062;-57
2021/08/24 08:22:56;;;;;;;24.70;21.70;;;24.80;99.90;;;;;;4956651;28;20098;-57
2021/08/24 08:25:23;;;;;;;16.35;13.23;;;24.90;99.90;;;;;;4949309;28;20058;-57
2021/08/24 08:27:49;;;;;;;38.72;34.85;;;25.40;99.90;;;;;;4963901;28;20066;-58
2021/08/24 08:30:15;;;;;;;18.23;15.32;;;24.70;99.90;;;;;;4975021;28;20061;-60
2021/08/24 08:32:43;;;;;;;10.30;6.97;;;24.60;99.90;;;;;;4962005;28;20058;-57
2021/08/24 08:35:11;;;;;;;13.40;8.23;;;24.00;99.90;;;;;;4967976;28;20058;-57
2021/08/24 08:37:39;;;;;;;12.07;8.35;;;23.50;99.90;;;;;;4964739;28;20050;-58
2021/08/24 08:40:09;;;;;;;22.55;20.23;;;23.50;99.90;;;;;;4965215;28;20082;-50
2021/08/24 08:42:41;;;;;;;17.67;15.73;;;23.80;99.90;;;;;;4966820;28;20061;-50
2021/08/24 08:45:23;;;;;;;10.63;7.95;;;24.40;99.40;;;;;;4964917;28;20055;-53
2021/08/24 08:47:54;;;;;;;10.95;9.20;;;24.90;99.20;;;;;;4965783;28;20051;-48
2021/08/24 08:50:35;;;;;;;10.00;7.53;;;25.10;96.40;;;;;;4950615;28;20069;-51
2021/08/24 08:53:16;;;;;;;7.00;4.57;;;25.70;93.50;;;;;;4950668;28;20058;-57
2021/08/24 08:55:45;;;;;;;6.50;3.88;;;25.90;89.70;;;;;;4961640;28;20061;-58
2021/08/24 08:58:34;;;;;;;5.57;3.28;;;26.40;90.00;;;;;;4964771;28;20086;-58
2021/08/24 09:01:16;;;;;;;12.48;9.75;;;26.60;86.00;;;;;;4962122;28;20126;-57
2021/08/24 09:04:05;;;;;;;12.32;8.48;;;26.40;78.40;;;;;;4956887;28;20050;-58
2021/08/24 09:06:31;;;;;;;21.45;19.20;;;26.20;80.80;;;;;;4944037;29;20103;-58
2021/08/24 09:08:59;;;;;;;21.33;19.27;;;26.40;86.90;;;;;;4951696;28;20054;-58
2021/08/24 09:11:36;;;;;;;10.30;7.57;;;26.90;83.70;;;;;;4961074;28;20571;-58
2021/08/24 09:14:15;;;;;;;16.17;14.55;;;27.20;77.40;;;;;;4959956;28;20069;-58
2021/08/24 09:17:17;;;;;;;15.25;13.43;;;27.40;69.20;;;;;;4965857;28;20055;-59
2021/08/24 09:20:16;;;;;;;3.70;2.55;;;27.70;63.70;;;;;;4947009;28;20057;-56
2021/08/24 09:22:43;;;;;;;10.32;7.00;;;28.00;62.20;;;;;;4939943;29;20139;-58
2021/08/24 09:25:16;;;;;;;12.65;10.93;;;27.70;64.30;;;;;;4945443;29;20055;-58
2021/08/24 09:28:07;;;;;;;4.88;2.67;;;27.80;65.10;;;;;;4945711;29;20055;-57
2021/08/24 09:30:44;;;;;;;14.68;13.23;;;27.60;59.60;;;;;;4939223;29;20055;-58
2021/08/24 09:33:11;;;;;;;6.60;3.78;;;27.90;60.30;;;;;;4937160;29;20102;-57
2021/08/24 09:35:46;;;;;;;7.20;4.22;;;27.70;62.00;;;;;;4947288;29;20062;-57
2021/08/24 09:38:42;;;;;;;8.65;4.22;;;27.90;61.10;;;;;;4941064;29;20471;-57
2021/08/24 09:41:39;;;;;;;4.50;3.30;;;27.50;59.30;;;;;;4945867;28;20136;-57
2021/08/24 09:44:19;;;;;;;9.05;6.20;;;27.20;62.50;;;;;;4880730;29;20063;-57
2021/08/24 09:46:49;;;;;;;7.70;6.47;;;27.20;62.00;;;;;;4888450;29;20056;-56
2021/08/24 09:49:21;;;;;;;6.47;3.00;;;27.50;62.90;;;;;;4884133;29;20448;-58
2021/08/24 09:51:57;;;;;;;27.10;22.92;;;28.10;60.30;;;;;;4899453;29;20060;-56
2021/08/24 09:54:47;;;;;;;26.23;23.50;;;27.30;59.10;;;;;;4890962;29;20048;-55
2021/08/24 09:57:16;;;;;;;11.50;7.20;;;26.70;61.50;;;;;;4872820;29;20061;-54
2021/08/24 10:00:04;;;;;;;32.47;29.50;;;26.80;61.30;;;;;;4882675;29;20068;-56
2021/08/24 10:02:43;;;;;;;6.47;4.65;;;27.20;60.00;;;;;;4874633;29;20067;-57
2021/08/24 10:05:15;;;;;;;6.95;4.07;;;27.40;60.50;;;;;;4870517;29;20056;-58
2021/08/24 10:07:44;;;;;;;15.63;13.95;;;27.40;58.80;;;;;;4890019;29;20656;-52
2021/08/24 10:10:29;;;;;;;7.30;5.15;;;27.90;59.00;;;;;;4878158;29;20089;-51
2021/08/24 10:12:59;;;;;;;12.00;9.13;;;28.10;56.50;;;;;;4881487;29;20175;-53
2021/08/24 10:15:28;;;;;;;12.30;10.95;;;28.50;58.60;;;;;;4878820;29;20049;-53
2021/08/24 10:18:07;;;;;;;5.57;3.63;;;28.30;55.70;;;;;;4884695;29;20132;-53
2021/08/24 10:20:42;;;;;;;11.23;10.05;;;28.30;53.30;;;;;;4922516;28;20077;-54
2021/08/24 10:23:14;;;;;;;10.05;8.43;;;28.40;54.20;;;;;;4955110;28;20504;-50
2021/08/24 10:25:51;;;;;;;10.00;7.72;;;28.60;54.10;;;;;;4960357;28;20158;-58
2021/08/24 10:28:24;;;;;;;5.22;3.47;;;28.60;51.70;;;;;;4954620;28;20051;-58
2021/08/24 10:30:52;;;;;;;6.45;4.60;;;28.70;50.00;;;;;;4961134;28;20054;-58
2021/08/24 10:33:27;;;;;;;3.50;2.05;;;28.40;48.80;;;;;;4961803;28;20054;-57
2021/08/24 10:36:05;;;;;;;5.72;2.40;;;28.10;47.70;;;;;;4964786;28;20959;-56
2021/08/24 10:38:55;;;;;;;4.60;2.55;;;27.80;47.50;;;;;;4945518;28;20051;-57
2021/08/24 10:41:32;;;;;;;3.92;2.00;;;27.50;49.50;;;;;;4955416;28;20563;-57
2021/08/24 10:44:06;;;;;;;4.82;2.67;;;27.20;52.70;;;;;;4960492;28;20070;-57
2021/08/24 10:46:50;;;;;;;3.95;1.90;;;27.70;51.30;;;;;;4962705;28;20661;-56
2021/08/24 10:49:16;;;;;;;5.18;2.10;;;28.10;52.10;;;;;;4962180;28;20141;-57
2021/08/24 10:52:20;;;;;;;4.07;1.95;;;28.60;53.70;;;;;;4943928;28;20102;-57
2021/08/24 10:55:10;;;;;;;4.28;2.00;;;28.90;50.20;;;;;;4961642;28;20086;-57
2021/08/24 10:58:27;;;;;;;3.88;2.17;;;29.20;47.20;;;;;;4957806;28;20043;-56
2021/08/24 11:01:18;;;;;;;3.75;2.13;;;29.40;46.80;;;;;;4858936;29;20061;-57
2021/08/24 11:04:02;;;;;;;4.13;1.85;;;29.10;46.60;;;;;;4846343;29;20827;-57
2021/08/24 11:06:52;;;;;;;6.07;2.20;;;29.10;45.60;;;;;;4861027;29;20060;-57
2021/08/24 11:09:33;;;;;;;4.00;2.13;;;29.50;45.80;;;;;;4862073;29;20293;-57
2021/08/24 11:12:28;;;;;;;6.25;2.10;;;28.60;46.60;;;;;;4863259;29;20064;-56
2021/08/24 11:15:05;;;;;;;4.68;2.30;;;28.80;47.70;;;;;;4861149;29;20062;-57
2021/08/24 11:17:58;;;;;;;4.30;2.50;;;29.20;45.40;;;;;;4862526;29;20064;-57
2021/08/24 11:20:36;;;;;;;5.65;2.30;;;29.20;44.90;;;;;;4866566;29;20164;-57
2021/08/24 11:23:40;;;;;;;5.40;2.70;;;29.40;42.20;;;;;;4863687;29;20053;-57
2021/08/24 11:26:26;;;;;;;6.22;2.08;;;29.40;42.70;;;;;;4853066;29;20062;-57
2021/08/24 11:29:11;;;;;;;4.05;2.25;;;29.20;42.20;;;;;;4858825;29;20523;-57
2021/08/24 11:31:45;;;;;;;3.72;2.20;;;29.30;41.70;;;;;;4878168;29;20517;-57
2021/08/24 11:34:33;;;;;;;3.55;2.10;;;29.00;42.20;;;;;;4902855;29;20060;-57
2021/08/24 11:37:04;;;;;;;4.80;1.80;;;29.10;43.60;;;;;;4897920;29;20114;-56
2021/08/24 11:39:49;;;;;;;3.80;2.35;;;28.70;44.00;;;;;;4890348;29;20056;-56
2021/08/24 11:42:38;;;;;;;5.07;2.47;;;28.40;43.60;;;;;;4902686;29;20759;-56
2021/08/24 11:45:20;;;;;;;4.40;2.03;;;27.70;45.70;;;;;;4890365;29;20060;-56
2021/08/24 11:48:04;;;;;;;3.25;2.00;;;27.60;46.00;;;;;;4894057;29;20056;-56
2021/08/24 11:50:58;;;;;;;3.75;1.85;;;27.80;43.60;;;;;;4894378;29;20056;-56
2021/08/24 11:53:45;;;;;;;4.53;1.98;;;28.10;45.10;;;;;;4876494;29;20063;-56
2021/08/24 11:56:32;;;;;;;4.28;2.03;;;28.30;44.50;;;;;;4891945;29;20075;-56
2021/08/24 11:59:07;;;;;;;3.92;2.40;;;28.70;43.70;;;;;;4894787;29;20093;-56
2021/08/24 12:01:34;;;;;;;6.20;2.47;;;28.90;45.20;;;;;;4948435;28;20575;-56
2021/08/24 12:04:05;;;;;;;5.93;2.05;;;29.30;45.80;;;;;;4957976;28;20073;-56
2021/08/24 12:06:45;;;;;;;4.63;2.30;;;29.40;45.00;;;;;;4958806;28;20071;-56
2021/08/24 12:09:32;;;;;;;4.90;1.95;;;29.20;43.40;;;;;;4950766;28;20087;-56
2021/08/24 12:11:59;;;;;;;3.28;1.92;;;29.20;42.50;;;;;;4946104;29;20061;-56
2021/08/24 12:14:33;;;;;;;3.08;2.00;;;29.30;41.90;;;;;;4951346;28;20069;-56
2021/08/24 12:17:18;;;;;;;4.45;2.33;;;28.60;43.80;;;;;;4952200;28;20504;-56
2021/08/24 12:19:57;;;;;;;3.70;2.15;;;29.10;44.60;;;;;;4961133;28;20051;-56
2021/08/24 12:22:39;;;;;;;3.73;2.20;;;29.20;43.50;;;;;;4954945;28;20522;-56
2021/08/24 12:25:13;;;;;;;4.13;1.85;;;29.10;44.70;;;;;;4958953;28;20116;-56
2021/08/24 12:28:00;;;;;;;4.60;2.22;;;28.50;44.70;;;;;;4969084;28;20466;-56
2021/08/24 12:30:34;;;;;;;5.97;3.53;;;29.00;42.00;;;;;;4958069;28;20059;-57
2021/08/24 12:33:08;;;;;;;4.00;2.97;;;29.20;42.60;;;;;;4959720;28;20055;-57
2021/08/24 12:35:40;;;;;;;6.00;5.35;;;29.40;42.10;;;;;;4949635;28;20051;-57
2021/08/24 12:38:27;;;;;;;6.38;5.57;;;29.60;41.60;;;;;;4959465;28;20046;-57
2021/08/24 12:40:55;;;;;;;19.15;17.25;;;28.70;43.20;;;;;;4959650;28;20055;-57
2021/08/24 12:43:26;;;;;;;6.13;5.32;;;28.00;45.10;;;;;;4942579;29;20133;-57
2021/08/24 12:46:18;;;;;;;3.47;1.92;;;28.10;46.00;;;;;;4948206;29;20109;-56
2021/08/24 12:49:18;;;;;;;6.10;3.75;;;27.80;46.50;;;;;;4948205;29;20080;-56
2021/08/24 12:51:55;;;;;;;4.40;2.58;;;28.10;47.10;;;;;;4956135;28;20127;-54
2021/08/24 12:54:29;;;;;;;3.42;2.40;;;27.30;44.80;;;;;;4952965;28;20098;-57
2021/08/24 12:57:15;;;;;;;9.70;7.95;;;27.50;46.10;;;;;;4963023;28;20209;-57
2021/08/24 12:59:47;;;;;;;23.20;21.10;;;28.50;45.30;;;;;;4950827;28;20475;-58
2021/08/24 13:02:26;;;;;;;9.50;7.80;;;29.00;43.30;;;;;;4960816;28;20055;-58
2021/08/24 13:05:00;;;;;;;7.63;6.35;;;29.70;45.30;;;;;;4958418;28;20496;-57
2021/08/24 13:07:58;;;;;;;11.73;10.38;;;30.30;41.40;;;;;;4961927;28;20397;-57
2021/08/24 13:10:32;;;;;;;6.45;5.57;;;30.40;40.90;;;;;;4963274;28;20058;-58
2021/08/24 13:13:00;;;;;;;15.77;14.35;;;30.70;40.00;;;;;;4959056;28;20132;-57